Time;durP1;ratioP1;P1;durP2;ratioP2;P2;SDS_P1;SDS_P2;PMS_P1;PMS_P2;Temp;Humidity;BMP_temperature;BMP_pressure;BME280_temperature;BME280_humidity;BME280_pressure;Samples;Min_cycle;Max_cycle;Signal;HPM_P1;HPM_P2
2021/12/28 00:00:16;;;;;;;49.47;19.88;;;6.50;99.90;;;;;;5094812;28;20104;-73
2021/12/28 00:02:48;;;;;;;56.33;21.98;;;6.50;99.90;;;;;;5114526;28;20043;-74
2021/12/28 00:05:16;;;;;;;44.58;19.08;;;6.50;99.90;;;;;;5113841;28;20096;-72
2021/12/28 00:07:42;;;;;;;31.88;13.07;;;6.50;99.90;;;;;;5128919;27;20115;-71
2021/12/28 00:10:10;;;;;;;55.08;21.75;;;6.60;99.90;;;;;;5077576;28;20047;-73
2021/12/28 00:12:38;;;;;;;51.20;21.42;;;6.60;99.90;;;;;;5111650;28;20048;-74
2021/12/28 00:15:18;;;;;;;55.78;23.02;;;6.50;99.90;;;;;;5128798;27;20181;-73
2021/12/28 00:18:02;;;;;;;53.65;22.85;;;6.60;99.90;;;;;;5094504;28;20039;-71
2021/12/28 00:20:54;;;;;;;54.92;21.70;;;6.50;99.90;;;;;;5097670;28;20051;-72
2021/12/28 00:23:24;;;;;;;57.92;21.63;;;6.50;99.90;;;;;;5112596;28;20130;-73
2021/12/28 00:25:52;;;;;;;59.28;24.23;;;6.60;99.90;;;;;;5095092;28;20393;-72
2021/12/28 00:28:19;;;;;;;63.95;25.05;;;6.60;99.90;;;;;;5095063;28;20048;-74
2021/12/28 00:30:47;;;;;;;62.40;24.70;;;6.60;99.90;;;;;;5077874;28;20081;-72
2021/12/28 00:33:14;;;;;;;61.55;23.85;;;6.60;99.90;;;;;;5112829;28;20050;-72
2021/12/28 00:35:41;;;;;;;62.33;23.67;;;6.60;99.90;;;;;;5094541;28;20044;-73
2021/12/28 00:38:10;;;;;;;61.72;23.92;;;6.60;99.90;;;;;;5113503;28;20067;-72
2021/12/28 00:40:37;;;;;;;56.38;22.05;;;6.60;99.90;;;;;;5128633;28;20055;-72
2021/12/28 00:43:04;;;;;;;64.10;24.23;;;6.60;99.90;;;;;;5094850;28;20047;-72
2021/12/28 00:45:29;;;;;;;73.78;26.90;;;6.60;99.90;;;;;;5094995;28;20092;-72
2021/12/28 00:47:56;;;;;;;64.55;23.88;;;6.70;99.90;;;;;;5112917;28;20127;-72
2021/12/28 00:50:24;;;;;;;62.47;24.85;;;6.70;99.90;;;;;;5128784;28;20130;-72
2021/12/28 00:52:50;;;;;;;72.15;25.73;;;6.80;99.90;;;;;;5113040;28;20047;-72
2021/12/28 00:55:19;;;;;;;65.70;21.95;;;6.70;99.90;;;;;;5078395;28;20051;-73
2021/12/28 00:57:45;;;;;;;66.72;25.10;;;6.80;99.90;;;;;;5094192;28;20082;-73
2021/12/28 01:00:21;;;;;;;71.07;25.63;;;6.80;99.90;;;;;;5112598;28;20048;-73
2021/12/28 01:02:48;;;;;;;67.57;25.50;;;6.80;99.90;;;;;;5095513;28;20277;-74
2021/12/28 01:05:15;;;;;;;74.40;27.42;;;6.90;99.90;;;;;;5097926;28;20047;-73
2021/12/28 01:07:41;;;;;;;71.05;23.83;;;6.90;99.90;;;;;;5133344;27;20043;-73
2021/12/28 01:10:10;;;;;;;65.87;23.03;;;6.90;99.90;;;;;;5082128;28;20044;-72
2021/12/28 01:12:37;;;;;;;76.47;26.17;;;6.90;99.90;;;;;;5133666;27;20121;-72
2021/12/28 01:15:06;;;;;;;78.10;26.63;;;6.90;99.90;;;;;;5115735;28;20147;-74
2021/12/28 01:17:33;;;;;;;70.13;24.20;;;6.90;99.90;;;;;;5117238;28;20487;-73
2021/12/28 01:19:59;;;;;;;84.40;26.70;;;6.90;99.90;;;;;;5098865;28;20044;-72
2021/12/28 01:22:25;;;;;;;80.07;25.80;;;6.90;99.90;;;;;;5117385;28;20040;-74
2021/12/28 01:24:51;;;;;;;65.97;22.50;;;7.00;99.90;;;;;;5081361;28;20066;-72
2021/12/28 01:27:17;;;;;;;74.25;26.27;;;7.00;99.90;;;;;;5098779;28;20042;-73
2021/12/28 01:29:43;;;;;;;77.20;26.73;;;7.10;99.90;;;;;;5133448;27;20058;-73
2021/12/28 01:32:08;;;;;;;81.57;26.50;;;7.10;99.90;;;;;;5117824;28;20499;-72
2021/12/28 01:34:35;;;;;;;80.10;26.55;;;7.10;99.90;;;;;;5119905;28;20044;-71
2021/12/28 01:37:01;;;;;;;65.22;20.02;;;7.10;99.90;;;;;;5101540;28;20094;-73
2021/12/28 01:39:27;;;;;;;78.72;25.73;;;7.10;99.90;;;;;;5116461;28;20112;-73
2021/12/28 01:41:53;;;;;;;81.18;27.48;;;7.10;99.90;;;;;;5116644;28;20130;-72
2021/12/28 01:44:19;;;;;;;77.75;25.65;;;7.10;99.90;;;;;;5115970;28;20333;-72
2021/12/28 01:46:44;;;;;;;82.75;27.08;;;7.10;99.90;;;;;;5063713;28;20137;-72
2021/12/28 01:49:10;;;;;;;90.05;27.38;;;7.10;99.90;;;;;;5097353;28;20058;-72
2021/12/28 01:51:37;;;;;;;88.43;26.25;;;7.20;99.90;;;;;;5115751;28;20069;-73
2021/12/28 01:54:05;;;;;;;96.35;27.77;;;7.20;99.90;;;;;;5130537;27;20533;-77
2021/12/28 01:56:37;;;;;;;85.68;27.75;;;7.10;99.90;;;;;;5115832;28;20054;-76
2021/12/28 01:59:04;;;;;;;81.80;26.95;;;7.10;99.90;;;;;;5132646;27;20393;-76
2021/12/28 02:01:30;;;;;;;82.78;26.15;;;7.10;99.90;;;;;;5097244;28;20380;-76
2021/12/28 02:03:56;;;;;;;91.45;27.65;;;7.10;99.90;;;;;;5081430;28;20383;-76
2021/12/28 02:06:25;;;;;;;93.70;26.30;;;7.20;99.90;;;;;;5131306;27;20546;-75
2021/12/28 02:08:52;;;;;;;99.35;28.40;;;7.20;99.90;;;;;;5097753;28;20466;-74
2021/12/28 02:11:18;;;;;;;85.05;26.50;;;7.20;99.90;;;;;;5116075;28;20047;-75
2021/12/28 02:13:44;;;;;;;88.95;28.45;;;7.20;99.90;;;;;;5097571;28;20532;-74
2021/12/28 02:16:10;;;;;;;94.13;27.63;;;7.20;99.90;;;;;;5130326;27;20051;-76
2021/12/28 02:18:36;;;;;;;90.85;28.17;;;7.20;99.90;;;;;;5097269;28;20086;-79
2021/12/28 02:21:04;;;;;;;97.88;28.40;;;7.10;99.90;;;;;;5114854;28;20063;-76
2021/12/28 02:23:31;;;;;;;81.78;25.52;;;7.10;99.90;;;;;;5097184;28;20080;-75
2021/12/28 02:25:56;;;;;;;89.13;27.38;;;7.10;99.90;;;;;;5114186;28;20475;-76
2021/12/28 02:28:23;;;;;;;86.97;26.90;;;7.20;99.90;;;;;;5096906;28;20090;-76
2021/12/28 02:30:52;;;;;;;100.53;27.63;;;7.20;99.90;;;;;;5096916;28;20044;-76
2021/12/28 02:33:20;;;;;;;93.45;27.05;;;7.20;99.90;;;;;;5096400;28;20059;-76
2021/12/28 02:35:46;;;;;;;93.45;28.55;;;7.20;99.90;;;;;;5115117;28;20467;-76
2021/12/28 02:38:13;;;;;;;85.70;26.80;;;7.20;99.90;;;;;;5113978;28;20363;-76
2021/12/28 02:40:41;;;;;;;71.57;24.63;;;7.20;99.90;;;;;;5079770;28;20046;-79
2021/12/28 02:43:10;;;;;;;76.63;24.33;;;7.20;99.90;;;;;;5097098;28;20173;-76
2021/12/28 02:45:39;;;;;;;86.63;26.40;;;7.30;99.90;;;;;;5113454;28;20062;-74
2021/12/28 02:48:06;;;;;;;71.82;23.77;;;7.30;99.90;;;;;;5131450;27;20108;-77
2021/12/28 02:50:43;;;;;;;85.35;25.55;;;7.30;99.90;;;;;;5113739;28;20047;-76
2021/12/28 02:53:11;;;;;;;82.57;25.48;;;7.30;99.90;;;;;;5114612;28;20058;-76
2021/12/28 02:55:38;;;;;;;;;;;7.30;99.90;;;;;;5114199;28;20494;-78
2021/12/28 02:58:05;;;;;;;;;;;7.30;99.90;;;;;;5115049;28;19920;-76
2021/12/28 03:00:35;;;;;;;;;;;7.30;99.90;;;;;;5096905;28;20332;-76
2021/12/28 03:03:13;;;;;;;54.30;17.67;;;7.30;99.90;;;;;;5096734;28;20108;-75
2021/12/28 03:05:41;;;;;;;64.95;23.02;;;7.40;99.90;;;;;;5113524;28;20054;-79
2021/12/28 03:08:08;;;;;;;66.00;21.95;;;7.30;99.90;;;;;;5130408;27;20051;-76
2021/12/28 03:10:36;;;;;;;56.67;21.00;;;7.40;99.90;;;;;;5114388;28;20376;-78
2021/12/28 03:13:02;;;;;;;69.40;22.52;;;7.40;99.90;;;;;;5130689;27;20079;-76
2021/12/28 03:15:28;;;;;;;75.35;24.80;;;7.30;99.90;;;;;;5130211;27;20043;-76
2021/12/28 03:17:54;;;;;;;71.72;22.42;;;7.30;99.90;;;;;;5096356;28;20146;-75
2021/12/28 03:20:20;;;;;;;67.35;22.80;;;7.30;99.90;;;;;;5112926;27;20048;-75
2021/12/28 03:22:46;;;;;;;68.30;22.42;;;7.20;99.90;;;;;;5079211;28;20039;-76
2021/12/28 03:25:12;;;;;;;68.32;21.88;;;7.30;99.90;;;;;;5078543;28;20080;-75
2021/12/28 03:27:40;;;;;;;74.28;23.23;;;7.30;99.90;;;;;;5129786;27;20113;-75
2021/12/28 03:30:07;;;;;;;;;;;7.30;99.90;;;;;;5096153;28;20048;-74
2021/12/28 03:32:32;;;;;;;;;;;7.40;99.90;;;;;;5113278;28;20390;-74
2021/12/28 03:34:59;;;;;;;61.83;20.55;;;7.30;99.90;;;;;;5112590;28;19983;-75
2021/12/28 03:37:24;;;;;;;68.23;21.60;;;7.30;99.90;;;;;;5112821;28;20082;-74
2021/12/28 03:39:50;;;;;;;66.22;21.73;;;7.30;99.90;;;;;;5095439;28;20040;-75
2021/12/28 03:42:16;;;;;;;70.45;23.55;;;7.30;99.90;;;;;;5096157;28;20058;-75
2021/12/28 03:44:42;;;;;;;72.00;22.92;;;7.30;99.90;;;;;;5113731;28;20069;-75
2021/12/28 03:47:08;;;;;;;70.32;24.08;;;7.20;99.90;;;;;;5112345;28;20058;-76
2021/12/28 03:49:33;;;;;;;62.92;22.00;;;7.20;99.90;;;;;;5095566;28;20109;-75
2021/12/28 03:52:01;;;;;;;58.22;21.85;;;7.20;99.90;;;;;;5095647;28;20114;-77
2021/12/28 03:54:27;;;;;;;63.67;21.63;;;7.10;99.90;;;;;;5095449;28;20039;-75
2021/12/28 03:56:53;;;;;;;61.65;21.23;;;7.10;99.90;;;;;;5078280;28;20100;-74
2021/12/28 03:59:20;;;;;;;55.95;19.65;;;7.10;99.90;;;;;;5078034;28;20093;-76
2021/12/28 04:01:46;;;;;;;61.10;20.05;;;7.00;99.90;;;;;;5091663;28;20105;-78
2021/12/28 04:04:12;;;;;;;58.42;19.85;;;6.90;99.90;;;;;;5091930;28;20060;-74
2021/12/28 04:06:37;;;;;;;69.90;21.88;;;6.90;99.90;;;;;;5091947;28;20048;-75
2021/12/28 04:09:04;;;;;;;63.55;21.63;;;6.90;99.90;;;;;;5075369;28;20071;-74
2021/12/28 04:11:30;;;;;;;57.80;20.13;;;6.80;99.90;;;;;;5091655;28;20067;-75
2021/12/28 04:14:02;;;;;;;53.58;19.45;;;6.80;99.90;;;;;;5075223;28;20480;-77
2021/12/28 04:16:29;;;;;;;59.42;20.55;;;6.80;99.90;;;;;;5074727;28;20036;-75
2021/12/28 04:18:55;;;;;;;;;;;6.70;99.90;;;;;;5075896;28;20047;-74
2021/12/28 04:21:21;;;;;;;51.42;19.08;;;6.70;99.90;;;;;;5126043;28;20379;-75
2021/12/28 04:23:48;;;;;;;57.47;18.73;;;6.70;99.90;;;;;;5075086;28;20395;-79
2021/12/28 04:26:14;;;;;;;58.95;18.67;;;6.60;99.90;;;;;;5093062;28;20105;-76
2021/12/28 04:28:41;;;;;;;52.30;18.73;;;6.60;99.90;;;;;;5092838;28;20043;-76
2021/12/28 04:31:07;;;;;;;46.63;16.10;;;6.70;99.90;;;;;;5091325;28;20507;-75
2021/12/28 04:33:37;;;;;;;52.13;18.13;;;6.70;99.90;;;;;;5092699;28;20311;-78
2021/12/28 04:36:07;;;;;;;49.80;16.92;;;6.70;99.90;;;;;;5058335;28;20036;-75
2021/12/28 04:38:34;;;;;;;55.33;18.10;;;6.70;99.90;;;;;;5091971;28;20040;-78
2021/12/28 04:41:00;;;;;;;43.22;15.93;;;6.80;99.90;;;;;;5095314;28;20048;-76
2021/12/28 04:43:25;;;;;;;47.95;16.52;;;6.80;99.90;;;;;;5078677;28;20066;-76
2021/12/28 04:45:51;;;;;;;55.22;17.42;;;6.80;99.90;;;;;;5095215;28;20056;-79
2021/12/28 04:48:17;;;;;;;43.85;14.88;;;6.80;99.90;;;;;;5096598;28;20048;-74
2021/12/28 04:50:44;;;;;;;45.97;16.60;;;6.80;99.90;;;;;;5095478;28;20044;-75
2021/12/28 04:53:12;;;;;;;56.38;16.20;;;6.90;99.90;;;;;;5077997;28;20436;-77
2021/12/28 04:55:41;;;;;;;51.33;16.88;;;6.90;99.90;;;;;;5061529;28;20129;-75
2021/12/28 04:58:08;;;;;;;45.15;14.57;;;6.90;99.90;;;;;;5095252;28;20101;-75
2021/12/28 05:00:34;;;;;;;44.35;15.85;;;6.90;99.90;;;;;;5094720;28;20083;-77
2021/12/28 05:03:00;;;;;;;40.45;15.50;;;7.00;99.90;;;;;;5096562;28;20364;-76
2021/12/28 05:05:27;;;;;;;40.53;14.23;;;6.90;99.90;;;;;;5095607;28;20122;-75
2021/12/28 05:07:53;;;;;;;43.42;15.45;;;6.90;99.90;;;;;;5096027;28;20476;-78
2021/12/28 05:10:19;;;;;;;33.87;13.20;;;7.00;99.90;;;;;;5078401;28;20075;-74
2021/12/28 05:12:45;;;;;;;36.55;12.55;;;7.00;99.90;;;;;;5096473;28;20044;-74
2021/12/28 05:15:11;;;;;;;45.17;13.43;;;7.00;99.90;;;;;;5078980;28;20048;-75
2021/12/28 05:17:37;;;;;;;37.38;13.15;;;7.10;99.90;;;;;;5097095;28;20518;-75
2021/12/28 05:20:05;;;;;;;39.53;13.15;;;7.10;99.90;;;;;;5078956;28;20104;-76
2021/12/28 05:22:31;;;;;;;42.60;13.35;;;7.10;99.90;;;;;;5078914;28;20090;-77
2021/12/28 05:24:57;;;;;;;36.88;14.25;;;7.10;99.90;;;;;;5096442;28;20043;-77
2021/12/28 05:27:23;;;;;;;45.33;13.75;;;7.10;99.90;;;;;;5095706;28;20399;-76
2021/12/28 05:29:49;;;;;;;35.63;13.23;;;7.10;99.90;;;;;;5095275;28;20051;-76
2021/12/28 05:32:16;;;;;;;39.88;13.10;;;7.20;99.90;;;;;;5094932;28;20069;-77
2021/12/28 05:34:42;;;;;;;31.20;12.30;;;7.10;99.90;;;;;;5095749;28;20059;-74
2021/12/28 05:37:08;;;;;;;30.93;11.07;;;7.10;99.90;;;;;;5094454;28;20047;-74
2021/12/28 05:39:34;;;;;;;33.05;12.40;;;7.10;99.90;;;;;;5095252;28;20068;-75
2021/12/28 05:42:01;;;;;;;26.60;9.00;;;7.00;99.90;;;;;;5095186;28;20048;-76
2021/12/28 05:44:27;;;;;;;27.55;11.63;;;7.00;99.90;;;;;;5078153;28;20063;-74
2021/12/28 05:46:54;;;;;;;31.50;11.30;;;7.10;99.90;;;;;;5061282;28;20052;-75
2021/12/28 05:49:21;;;;;;;;;;;7.00;99.90;;;;;;5095121;28;20143;-76
2021/12/28 05:51:47;;;;;;;33.65;11.23;;;7.00;99.90;;;;;;5111558;28;19920;-76
2021/12/28 05:54:13;;;;;;;22.65;7.90;;;7.00;99.90;;;;;;5094264;28;20047;-77
2021/12/28 05:56:41;;;;;;;32.80;10.57;;;7.00;99.90;;;;;;5095216;28;20122;-76
2021/12/28 05:59:07;;;;;;;34.10;9.82;;;7.00;99.90;;;;;;5095178;28;20044;-77
2021/12/28 06:01:33;;;;;;;29.45;9.98;;;7.00;99.90;;;;;;5077223;28;20491;-76
2021/12/28 06:03:59;;;;;;;31.10;9.65;;;7.00;99.90;;;;;;5094195;28;20131;-79
2021/12/28 06:06:25;;;;;;;31.58;9.93;;;7.10;99.90;;;;;;5076919;28;20480;-75
2021/12/28 06:08:51;;;;;;;30.23;8.60;;;7.10;99.90;;;;;;5095256;28;20044;-74
2021/12/28 06:11:17;;;;;;;32.97;8.27;;;7.20;99.90;;;;;;5094263;28;20069;-75
2021/12/28 06:13:43;;;;;;;24.40;9.40;;;7.20;99.90;;;;;;5093902;28;20075;-76
2021/12/28 06:16:12;;;;;;;31.52;8.40;;;7.20;99.90;;;;;;5095516;28;20071;-76
2021/12/28 06:18:38;;;;;;;34.05;9.55;;;7.30;99.90;;;;;;5095022;28;20082;-75
2021/12/28 06:21:05;;;;;;;26.73;7.45;;;7.30;99.90;;;;;;5077615;28;20135;-75
2021/12/28 06:23:31;;;;;;;29.40;8.18;;;7.30;99.90;;;;;;5095120;28;20388;-76
2021/12/28 06:25:56;;;;;;;33.17;8.00;;;7.30;99.90;;;;;;5095191;28;20043;-76
2021/12/28 06:28:22;;;;;;;22.50;7.00;;;7.30;99.90;;;;;;5093905;28;20058;-75
2021/12/28 06:30:48;;;;;;;26.35;7.78;;;7.30;99.90;;;;;;5093758;28;20055;-76
2021/12/28 06:33:15;;;;;;;24.13;7.22;;;7.30;99.90;;;;;;5094072;28;20051;-77
2021/12/28 06:35:41;;;;;;;29.67;7.43;;;7.40;99.90;;;;;;5093484;28;20056;-75
2021/12/28 06:38:08;;;;;;;35.78;7.60;;;7.30;99.90;;;;;;5093533;28;20048;-76
2021/12/28 06:40:34;;;;;;;26.42;7.97;;;7.40;99.90;;;;;;5093745;28;20111;-76
2021/12/28 06:43:00;;;;;;;31.73;8.32;;;7.40;99.90;;;;;;5093311;28;20051;-75
2021/12/28 06:45:26;;;;;;;28.48;8.35;;;7.50;99.90;;;;;;5076478;28;20391;-76
2021/12/28 06:47:52;;;;;;;26.52;7.70;;;7.40;99.90;;;;;;5093348;28;20052;-75
2021/12/28 06:50:18;;;;;;;23.80;6.82;;;7.30;99.90;;;;;;5093173;28;20127;-75
2021/12/28 06:52:44;;;;;;;25.00;6.55;;;7.40;99.90;;;;;;5092919;28;20453;-75
2021/12/28 06:55:11;;;;;;;27.90;7.68;;;7.40;99.90;;;;;;5092448;28;20134;-76
2021/12/28 06:57:37;;;;;;;24.85;7.65;;;7.30;99.90;;;;;;5093401;28;20392;-76
2021/12/28 07:00:07;;;;;;;24.15;6.55;;;7.30;99.90;;;;;;5077942;28;20054;-75
2021/12/28 07:02:33;;;;;;;22.08;5.93;;;7.30;99.90;;;;;;5090681;28;20151;-76
2021/12/28 07:04:59;;;;;;;31.63;8.05;;;7.20;99.90;;;;;;5093805;28;20135;-76
2021/12/28 07:07:25;;;;;;;20.15;7.60;;;7.20;99.90;;;;;;5093872;28;20054;-76
2021/12/28 07:09:51;;;;;;;26.95;8.32;;;7.20;99.90;;;;;;5094233;28;20044;-74
2021/12/28 07:12:16;;;;;;;32.95;8.10;;;7.10;99.90;;;;;;5093918;28;20044;-75
2021/12/28 07:14:42;;;;;;;32.50;7.78;;;7.10;99.90;;;;;;5076071;28;20090;-75
2021/12/28 07:17:08;;;;;;;30.63;8.15;;;7.20;99.90;;;;;;5093183;28;20051;-79
2021/12/28 07:19:34;;;;;;;25.95;8.20;;;7.20;99.90;;;;;;5059145;28;20047;-75
2021/12/28 07:22:00;;;;;;;29.20;7.10;;;7.20;99.90;;;;;;5076335;28;20047;-77
2021/12/28 07:24:26;;;;;;;24.88;7.50;;;7.20;99.90;;;;;;5075967;28;20052;-78
2021/12/28 07:26:53;;;;;;;27.02;8.07;;;7.10;99.90;;;;;;5092959;28;20475;-75
2021/12/28 07:29:20;;;;;;;19.88;5.97;;;7.20;99.90;;;;;;5059397;28;20159;-75
2021/12/28 07:31:46;;;;;;;24.55;6.38;;;7.10;99.90;;;;;;5076122;28;20048;-76
2021/12/28 07:34:12;;;;;;;31.08;6.93;;;7.20;99.90;;;;;;5059282;28;20050;-76
2021/12/28 07:36:38;;;;;;;23.80;7.32;;;7.20;99.90;;;;;;5093981;28;20068;-75
2021/12/28 07:39:05;;;;;;;32.33;7.35;;;7.20;99.90;;;;;;5092471;28;20135;-75
2021/12/28 07:41:31;;;;;;;24.83;6.63;;;7.20;99.90;;;;;;5092293;28;20119;-79
2021/12/28 07:43:57;;;;;;;28.50;7.10;;;7.20;99.90;;;;;;5092783;28;20083;-75
2021/12/28 07:46:23;;;;;;;21.17;5.60;;;7.10;99.90;;;;;;5093100;28;20484;-77
2021/12/28 07:48:49;;;;;;;30.45;6.55;;;7.20;99.90;;;;;;5092940;28;20083;-76
2021/12/28 07:51:15;;;;;;;23.25;6.80;;;7.10;99.90;;;;;;5092700;28;20047;-76
2021/12/28 07:53:41;;;;;;;27.55;6.45;;;7.10;99.90;;;;;;5076571;28;20052;-74
2021/12/28 07:56:07;;;;;;;28.38;7.30;;;7.10;99.90;;;;;;5093174;28;20040;-77
2021/12/28 07:58:33;;;;;;;30.85;6.55;;;7.10;99.90;;;;;;5093730;28;20044;-77
2021/12/28 08:00:59;;;;;;;24.70;6.68;;;7.10;99.90;;;;;;5092192;28;20048;-75
2021/12/28 08:03:25;;;;;;;32.15;6.53;;;7.10;99.90;;;;;;5093069;28;20048;-76
2021/12/28 08:05:52;;;;;;;19.00;5.80;;;7.10;99.90;;;;;;5075359;28;20066;-74
2021/12/28 08:08:18;;;;;;;;;;;7.10;99.90;;;;;;5093495;28;20148;-77
2021/12/28 08:10:45;;;;;;;28.17;6.40;;;7.20;99.90;;;;;;5109605;28;20019;-77
2021/12/28 08:13:12;;;;;;;27.23;5.23;;;7.20;99.90;;;;;;5093664;28;20047;-76
2021/12/28 08:15:39;;;;;;;26.55;6.38;;;7.20;99.90;;;;;;5093431;28;20129;-75
2021/12/28 08:18:09;;;;;;;21.83;5.32;;;7.20;99.90;;;;;;5075668;28;20055;-76
2021/12/28 08:20:36;;;;;;;17.40;5.18;;;7.30;99.90;;;;;;5093461;28;20040;-74
2021/12/28 08:23:02;;;;;;;21.27;5.68;;;7.30;99.90;;;;;;5093717;28;20056;-74
2021/12/28 08:25:28;;;;;;;28.70;6.10;;;7.40;99.90;;;;;;5076083;28;20051;-75
2021/12/28 08:27:55;;;;;;;22.35;4.78;;;7.40;99.90;;;;;;5075933;28;20055;-75
2021/12/28 08:30:21;;;;;;;23.15;5.95;;;7.40;99.90;;;;;;5093130;28;20233;-75
2021/12/28 08:32:48;;;;;;;25.95;5.82;;;7.50;99.90;;;;;;5075709;28;20439;-75
2021/12/28 08:35:15;;;;;;;29.60;5.90;;;7.40;99.90;;;;;;5091899;28;20048;-77
2021/12/28 08:37:41;;;;;;;24.05;5.05;;;7.50;99.90;;;;;;5092272;28;20059;-77
2021/12/28 08:40:10;;;;;;;27.67;6.23;;;7.50;99.90;;;;;;5092101;28;20052;-76
2021/12/28 08:42:36;;;;;;;18.92;4.32;;;7.50;99.90;;;;;;5092443;28;20278;-76
2021/12/28 08:45:02;;;;;;;22.80;5.60;;;7.40;99.90;;;;;;5092355;28;20130;-77
2021/12/28 08:47:28;;;;;;;28.60;5.68;;;7.50;99.90;;;;;;5074794;28;20047;-76
2021/12/28 08:49:55;;;;;;;14.60;4.88;;;7.50;99.90;;;;;;5058116;28;20044;-74
2021/12/28 08:52:22;;;;;;;15.43;4.13;;;7.50;99.90;;;;;;5092919;28;20048;-77
2021/12/28 08:54:48;;;;;;;21.50;4.47;;;7.50;99.90;;;;;;5092660;28;20040;-76
2021/12/28 08:57:13;;;;;;;21.15;5.03;;;7.40;99.90;;;;;;5075208;28;20055;-74
2021/12/28 08:59:39;;;;;;;20.67;5.28;;;7.50;99.90;;;;;;5091937;28;20048;-75
2021/12/28 09:02:07;;;;;;;20.55;5.47;;;7.50;99.90;;;;;;5091400;28;20105;-78
2021/12/28 09:04:34;;;;;;;20.75;4.93;;;7.50;99.90;;;;;;5091634;28;20502;-74
2021/12/28 09:07:00;;;;;;;23.30;5.60;;;7.60;99.90;;;;;;5091838;28;20048;-74
2021/12/28 09:09:25;;;;;;;22.52;4.97;;;7.60;99.90;;;;;;5093064;28;20286;-76
2021/12/28 09:11:51;;;;;;;23.95;5.80;;;7.70;99.90;;;;;;5092239;28;20139;-75
2021/12/28 09:14:18;;;;;;;24.95;4.82;;;7.70;99.90;;;;;;5075772;28;20130;-78
2021/12/28 09:16:43;;;;;;;25.60;5.40;;;7.70;99.90;;;;;;5075799;28;20058;-77
2021/12/28 09:19:09;;;;;;;22.70;4.57;;;7.70;99.90;;;;;;5074952;28;20040;-76
2021/12/28 09:21:35;;;;;;;22.55;5.93;;;7.80;99.90;;;;;;5075436;28;20043;-77
2021/12/28 09:24:01;;;;;;;21.60;5.15;;;7.80;99.90;;;;;;5074594;28;20127;-76
2021/12/28 09:26:27;;;;;;;22.65;5.03;;;7.90;99.90;;;;;;5096298;28;20074;-77
2021/12/28 09:28:53;;;;;;;30.67;6.13;;;7.90;99.90;;;;;;5095302;28;20130;-75
2021/12/28 09:31:19;;;;;;;23.17;5.65;;;7.90;99.90;;;;;;5094942;28;20044;-77
2021/12/28 09:33:45;;;;;;;32.97;6.93;;;7.90;99.90;;;;;;5078323;28;20055;-74
2021/12/28 09:36:14;;;;;;;26.38;6.50;;;7.90;99.90;;;;;;5096437;28;20055;-76
2021/12/28 09:38:42;;;;;;;27.92;5.65;;;8.00;99.90;;;;;;5095136;28;20040;-76
2021/12/28 09:41:08;;;;;;;30.20;5.97;;;8.00;99.90;;;;;;5061590;28;20135;-77
2021/12/28 09:43:34;;;;;;;34.92;6.85;;;8.00;99.90;;;;;;5095953;28;20144;-76
2021/12/28 09:46:00;;;;;;;25.83;5.57;;;8.00;99.90;;;;;;5096092;28;20535;-74
2021/12/28 09:48:26;;;;;;;18.73;4.30;;;8.10;99.90;;;;;;5062010;28;20056;-74
2021/12/28 09:50:51;;;;;;;23.80;4.57;;;8.10;99.90;;;;;;5095297;28;20491;-74
2021/12/28 09:53:17;;;;;;;25.50;5.43;;;8.10;99.90;;;;;;5094303;28;20402;-74
2021/12/28 09:55:43;;;;;;;19.60;5.15;;;8.10;99.90;;;;;;5077665;28;20111;-75
2021/12/28 09:58:09;;;;;;;22.73;5.18;;;8.10;99.90;;;;;;5078283;28;20143;-77
2021/12/28 10:00:36;;;;;;;25.35;6.30;;;8.20;99.90;;;;;;5096884;28;20048;-75
2021/12/28 10:03:03;;;;;;;33.15;4.82;;;8.10;99.90;;;;;;5081400;28;20052;-76
2021/12/28 10:05:30;;;;;;;17.45;4.28;;;8.20;99.90;;;;;;5133008;27;20081;-77
2021/12/28 10:07:58;;;;;;;19.85;4.88;;;8.20;99.90;;;;;;5081697;28;20053;-78
2021/12/28 10:10:33;;;;;;;19.38;3.63;;;8.20;99.90;;;;;;5115468;28;20475;-80
2021/12/28 10:13:05;;;;;;;16.98;3.67;;;8.20;99.90;;;;;;5098787;28;20066;-78
2021/12/28 10:15:35;;;;;;;23.88;5.60;;;8.20;99.90;;;;;;5098407;28;20043;-75
2021/12/28 10:18:09;;;;;;;21.63;3.72;;;8.20;99.90;;;;;;5132656;27;20068;-77
2021/12/28 10:20:48;;;;;;;23.80;7.07;;;8.20;99.90;;;;;;5098205;28;20118;-75
2021/12/28 10:23:20;;;;;;;17.15;5.72;;;8.30;99.90;;;;;;5098315;28;20051;-77
2021/12/28 10:25:49;;;;;;;23.02;6.07;;;8.30;99.90;;;;;;5116719;28;20043;-77
2021/12/28 10:28:18;;;;;;;18.15;5.25;;;8.30;99.90;;;;;;5080970;28;20050;-76
2021/12/28 10:30:53;;;;;;;26.42;6.43;;;8.30;99.90;;;;;;5113977;28;20495;-76
2021/12/28 10:33:24;;;;;;;25.33;6.10;;;8.40;99.90;;;;;;5097998;28;20044;-75
2021/12/28 10:35:54;;;;;;;22.80;6.18;;;8.40;99.90;;;;;;5114100;28;20126;-75
2021/12/28 10:38:26;;;;;;;18.02;6.07;;;8.40;99.90;;;;;;5097230;28;20130;-76
2021/12/28 10:40:55;;;;;;;19.83;7.10;;;8.50;99.90;;;;;;5097245;28;20040;-75
2021/12/28 10:43:30;;;;;;;23.40;6.07;;;8.50;99.90;;;;;;5131621;27;20507;-76
2021/12/28 10:46:08;;;;;;;20.67;5.07;;;8.50;99.90;;;;;;5131716;27;20083;-76
2021/12/28 10:48:42;;;;;;;28.77;6.35;;;8.50;99.90;;;;;;5131986;27;20051;-77
2021/12/28 10:51:12;;;;;;;22.50;6.07;;;8.50;99.90;;;;;;5132222;27;20459;-76
2021/12/28 10:53:56;;;;;;;22.35;6.45;;;8.60;99.90;;;;;;5115052;28;20036;-77
2021/12/28 10:56:23;;;;;;;24.45;6.70;;;8.60;99.90;;;;;;5097700;28;20044;-74
2021/12/28 10:58:50;;;;;;;26.35;6.30;;;8.50;99.90;;;;;;5063618;28;20111;-76
2021/12/28 11:01:38;;;;;;;21.02;6.45;;;8.60;99.90;;;;;;5113806;28;20150;-77
2021/12/28 11:04:09;;;;;;;23.02;6.90;;;8.60;99.90;;;;;;5116274;28;20054;-76
2021/12/28 11:06:38;;;;;;;22.92;7.07;;;8.60;99.90;;;;;;5131702;27;20048;-76
2021/12/28 11:09:10;;;;;;;23.70;7.68;;;8.60;99.90;;;;;;5097952;28;20062;-76
2021/12/28 11:11:38;;;;;;;22.65;8.07;;;8.60;99.90;;;;;;5080490;28;20444;-77
2021/12/28 11:14:05;;;;;;;;;;;8.70;99.90;;;;;;5081782;28;20067;-76
2021/12/28 11:16:32;;;;;;;23.52;8.05;;;8.70;99.90;;;;;;5082550;28;19972;-82
2021/12/28 11:19:02;;;;;;;21.85;7.38;;;8.70;99.90;;;;;;5116078;28;20039;-79
2021/12/28 11:21:34;;;;;;;24.02;8.60;;;8.70;99.90;;;;;;5116102;28;20123;-77
2021/12/28 11:24:05;;;;;;;23.42;9.55;;;8.70;99.90;;;;;;5134653;27;20043;-76
2021/12/28 11:26:53;;;;;;;26.35;8.93;;;8.70;99.90;;;;;;5135303;27;20058;-78
2021/12/28 11:29:39;;;;;;;22.27;9.27;;;8.70;99.90;;;;;;5067043;28;20051;-79
2021/12/28 11:32:12;;;;;;;20.95;8.95;;;8.70;99.90;;;;;;5083710;28;20045;-77
2021/12/28 11:34:40;;;;;;;24.50;9.23;;;8.60;99.90;;;;;;5132026;27;20097;-76
2021/12/28 11:37:05;;;;;;;;;;;8.70;99.90;;;;;;5130979;27;20104;-76
2021/12/28 11:39:39;;;;;;;13.73;5.57;;;8.70;99.90;;;;;;5114607;28;19928;-76
2021/12/28 11:42:06;;;;;;;18.80;7.93;;;8.80;99.90;;;;;;5096245;28;20051;-78
2021/12/28 11:44:35;;;;;;;20.95;7.30;;;8.80;99.90;;;;;;5079223;28;20047;-75
2021/12/28 11:47:06;;;;;;;19.00;9.00;;;8.80;99.90;;;;;;5130456;27;20051;-75
2021/12/28 11:49:33;;;;;;;21.63;9.30;;;8.80;99.90;;;;;;5129922;27;20066;-76
2021/12/28 11:52:02;;;;;;;21.27;9.07;;;8.80;99.90;;;;;;5095532;28;20071;-77
2021/12/28 11:54:31;;;;;;;23.80;8.80;;;8.70;99.90;;;;;;5095666;28;20312;-76
2021/12/28 11:57:04;;;;;;;22.05;9.50;;;8.80;99.90;;;;;;5113548;28;20035;-78
2021/12/28 11:59:32;;;;;;;23.55;8.93;;;8.90;99.90;;;;;;5062738;28;20040;-75
2021/12/28 12:02:06;;;;;;;22.85;9.00;;;8.90;99.90;;;;;;5095459;28;20123;-77
2021/12/28 12:04:32;;;;;;;18.08;8.63;;;8.90;99.90;;;;;;5094889;28;20084;-76
2021/12/28 12:07:12;;;;;;;20.70;9.32;;;8.90;99.90;;;;;;5130042;27;20047;-75
2021/12/28 12:09:54;;;;;;;23.73;8.95;;;8.90;99.90;;;;;;5095201;28;20075;-80
2021/12/28 12:12:22;;;;;;;23.15;9.38;;;8.90;99.90;;;;;;5112371;28;20042;-78
2021/12/28 12:14:52;;;;;;;21.15;8.52;;;8.80;99.90;;;;;;5079296;28;20048;-76
2021/12/28 12:17:39;;;;;;;22.67;8.05;;;8.90;99.90;;;;;;5129978;27;20101;-81
2021/12/28 12:20:20;;;;;;;22.27;9.02;;;8.90;99.90;;;;;;5129497;27;20116;-75
2021/12/28 12:22:50;;;;;;;17.70;9.02;;;9.00;99.90;;;;;;5130082;27;20055;-76
2021/12/28 12:25:18;;;;;;;19.00;7.68;;;9.00;99.90;;;;;;5095014;28;20050;-75
2021/12/28 12:27:59;;;;;;;18.38;9.20;;;9.00;99.90;;;;;;5113001;28;20043;-76
2021/12/28 12:30:27;;;;;;;18.67;7.95;;;9.00;99.90;;;;;;5077915;28;20043;-77
2021/12/28 12:33:02;;;;;;;21.65;8.88;;;9.00;99.90;;;;;;5129029;28;20069;-77
2021/12/28 12:35:28;;;;;;;23.27;8.57;;;9.20;99.90;;;;;;5111892;28;20059;-75
2021/12/28 12:37:54;;;;;;;17.65;8.40;;;9.10;99.90;;;;;;5094354;28;20039;-77
2021/12/28 12:40:20;;;;;;;18.80;7.40;;;9.10;99.90;;;;;;5129167;28;20053;-75
2021/12/28 12:43:09;;;;;;;20.85;10.02;;;9.20;99.90;;;;;;5061411;28;20043;-78
2021/12/28 12:46:05;;;;;;;20.02;9.07;;;9.10;99.90;;;;;;5095745;28;20082;-78
2021/12/28 12:48:37;;;;;;;22.60;8.63;;;9.00;99.90;;;;;;5078053;28;20051;-77